sensor_id;sensor_type;location;lat;lon;timestamp;P1;durP1;ratioP1;P2;durP2;ratioP2
13847;SDS011;6994;49.752;6.094;2022-08-20T00:00:47;2.67;;;1.00;;
13847;SDS011;6994;49.752;6.094;2022-08-20T00:05:44;0.82;;;0.77;;
13847;SDS011;6994;49.752;6.094;2022-08-20T00:08:10;0.80;;;0.80;;
13847;SDS011;6994;49.752;6.094;2022-08-20T00:10:38;1.15;;;0.70;;
13847;SDS011;6994;49.752;6.094;2022-08-20T00:13:05;2.92;;;0.98;;
13847;SDS011;6994;49.752;6.094;2022-08-20T00:15:32;1.27;;;0.85;;
13847;SDS011;6994;49.752;6.094;2022-08-20T00:17:58;1.87;;;0.82;;
13847;SDS011;6994;49.752;6.094;2022-08-20T00:20:29;1.50;;;0.88;;
13847;SDS011;6994;49.752;6.094;2022-08-20T00:22:55;0.80;;;0.80;;
13847;SDS011;6994;49.752;6.094;2022-08-20T00:25:23;2.72;;;1.08;;
13847;SDS011;6994;49.752;6.094;2022-08-20T00:27:49;3.62;;;1.10;;
13847;SDS011;6994;49.752;6.094;2022-08-20T00:30:17;3.22;;;1.00;;
13847;SDS011;6994;49.752;6.094;2022-08-20T00:32:48;0.80;;;0.80;;
13847;SDS011;6994;49.752;6.094;2022-08-20T00:35:15;1.87;;;1.10;;
13847;SDS011;6994;49.752;6.094;2022-08-20T00:37:41;2.30;;;1.20;;
13847;SDS011;6994;49.752;6.094;2022-08-20T00:40:09;1.95;;;1.40;;
13847;SDS011;6994;49.752;6.094;2022-08-20T00:42:39;1.52;;;1.30;;
13847;SDS011;6994;49.752;6.094;2022-08-20T00:45:05;1.65;;;1.20;;
13847;SDS011;6994;49.752;6.094;2022-08-20T00:47:33;1.33;;;1.20;;
13847;SDS011;6994;49.752;6.094;2022-08-20T00:49:59;3.05;;;1.10;;
13847;SDS011;6994;49.752;6.094;2022-08-20T00:52:27;1.50;;;1.20;;
13847;SDS011;6994;49.752;6.094;2022-08-20T00:54:55;2.03;;;1.25;;
13847;SDS011;6994;49.752;6.094;2022-08-20T00:57:23;1.98;;;1.10;;
13847;SDS011;6994;49.752;6.094;2022-08-20T00:59:49;1.17;;;0.98;;
13847;SDS011;6994;49.752;6.094;2022-08-20T01:02:17;3.97;;;1.70;;
13847;SDS011;6994;49.752;6.094;2022-08-20T01:04:44;1.45;;;1.10;;
13847;SDS011;6994;49.752;6.094;2022-08-20T01:07:25;1.50;;;1.10;;
13847;SDS011;6994;49.752;6.094;2022-08-20T01:09:48;1.17;;;1.00;;
13847;SDS011;6994;49.752;6.094;2022-08-20T01:12:15;1.95;;;1.75;;
13847;SDS011;6994;49.752;6.094;2022-08-20T01:14:42;3.30;;;1.50;;
13847;SDS011;6994;49.752;6.094;2022-08-20T01:17:09;2.85;;;1.98;;
13847;SDS011;6994;49.752;6.094;2022-08-20T01:19:41;3.70;;;2.20;;
13847;SDS011;6994;49.752;6.094;2022-08-20T01:22:07;3.05;;;1.75;;
13847;SDS011;6994;49.752;6.094;2022-08-20T01:24:54;1.92;;;1.75;;
13847;SDS011;6994;49.752;6.094;2022-08-20T01:27:19;2.08;;;1.60;;
13847;SDS011;6994;49.752;6.094;2022-08-20T01:29:46;2.83;;;1.65;;
13847;SDS011;6994;49.752;6.094;2022-08-20T01:32:13;1.48;;;1.37;;
13847;SDS011;6994;49.752;6.094;2022-08-20T01:34:41;4.12;;;1.30;;
13847;SDS011;6994;49.752;6.094;2022-08-20T01:37:08;1.40;;;1.30;;
13847;SDS011;6994;49.752;6.094;2022-08-20T01:39:35;1.37;;;1.20;;
13847;SDS011;6994;49.752;6.094;2022-08-20T01:42:13;2.70;;;2.47;;
13847;SDS011;6994;49.752;6.094;2022-08-20T01:44:50;2.37;;;1.52;;
13847;SDS011;6994;49.752;6.094;2022-08-20T01:47:19;4.32;;;1.50;;
13847;SDS011;6994;49.752;6.094;2022-08-20T01:49:46;1.75;;;1.30;;
13847;SDS011;6994;49.752;6.094;2022-08-20T01:52:14;1.73;;;1.40;;
13847;SDS011;6994;49.752;6.094;2022-08-20T01:54:39;3.50;;;2.20;;
13847;SDS011;6994;49.752;6.094;2022-08-20T01:57:15;4.97;;;1.80;;
13847;SDS011;6994;49.752;6.094;2022-08-20T01:59:36;1.65;;;1.48;;
13847;SDS011;6994;49.752;6.094;2022-08-20T02:02:03;1.48;;;1.37;;
13847;SDS011;6994;49.752;6.094;2022-08-20T02:04:31;2.40;;;1.58;;
13847;SDS011;6994;49.752;6.094;2022-08-20T02:06:59;6.43;;;1.85;;
13847;SDS011;6994;49.752;6.094;2022-08-20T02:09:30;3.08;;;2.20;;
13847;SDS011;6994;49.752;6.094;2022-08-20T02:11:56;1.70;;;1.60;;
13847;SDS011;6994;49.752;6.094;2022-08-20T02:14:23;2.40;;;2.03;;
13847;SDS011;6994;49.752;6.094;2022-08-20T02:16:50;1.52;;;1.42;;
13847;SDS011;6994;49.752;6.094;2022-08-20T02:19:24;3.75;;;1.77;;
13847;SDS011;6994;49.752;6.094;2022-08-20T02:22:01;5.10;;;2.50;;
13847;SDS011;6994;49.752;6.094;2022-08-20T02:24:27;4.35;;;1.65;;
13847;SDS011;6994;49.752;6.094;2022-08-20T02:26:54;2.00;;;1.90;;
13847;SDS011;6994;49.752;6.094;2022-08-20T02:29:21;3.90;;;2.20;;
13847;SDS011;6994;49.752;6.094;2022-08-20T02:31:48;2.20;;;1.92;;
13847;SDS011;6994;49.752;6.094;2022-08-20T02:34:15;5.07;;;2.20;;
13847;SDS011;6994;49.752;6.094;2022-08-20T02:36:43;2.65;;;2.00;;
13847;SDS011;6994;49.752;6.094;2022-08-20T02:39:10;3.25;;;2.17;;
13847;SDS011;6994;49.752;6.094;2022-08-20T02:41:37;1.95;;;1.67;;
13847;SDS011;6994;49.752;6.094;2022-08-20T02:44:05;2.95;;;1.67;;
13847;SDS011;6994;49.752;6.094;2022-08-20T02:46:32;2.53;;;1.95;;
13847;SDS011;6994;49.752;6.094;2022-08-20T02:48:59;2.30;;;2.10;;
13847;SDS011;6994;49.752;6.094;2022-08-20T02:51:27;5.47;;;1.90;;
13847;SDS011;6994;49.752;6.094;2022-08-20T02:53:54;3.15;;;1.98;;
13847;SDS011;6994;49.752;6.094;2022-08-20T02:56:21;2.37;;;2.17;;
13847;SDS011;6994;49.752;6.094;2022-08-20T02:58:48;4.20;;;2.72;;
13847;SDS011;6994;49.752;6.094;2022-08-20T03:01:16;4.15;;;2.35;;
13847;SDS011;6994;49.752;6.094;2022-08-20T03:03:43;1.70;;;1.60;;
13847;SDS011;6994;49.752;6.094;2022-08-20T03:06:10;3.00;;;2.60;;
13847;SDS011;6994;49.752;6.094;2022-08-20T03:08:37;2.72;;;2.35;;
13847;SDS011;6994;49.752;6.094;2022-08-20T03:11:04;3.00;;;2.03;;
13847;SDS011;6994;49.752;6.094;2022-08-20T03:13:32;3.80;;;1.65;;
13847;SDS011;6994;49.752;6.094;2022-08-20T03:15:59;2.08;;;1.70;;
13847;SDS011;6994;49.752;6.094;2022-08-20T03:18:28;2.42;;;1.70;;
13847;SDS011;6994;49.752;6.094;2022-08-20T03:20:53;2.65;;;2.10;;
13847;SDS011;6994;49.752;6.094;2022-08-20T03:23:20;3.05;;;1.92;;
13847;SDS011;6994;49.752;6.094;2022-08-20T03:25:48;2.12;;;1.90;;
13847;SDS011;6994;49.752;6.094;2022-08-20T03:28:16;2.65;;;1.70;;
13847;SDS011;6994;49.752;6.094;2022-08-20T03:30:42;2.40;;;2.10;;
13847;SDS011;6994;49.752;6.094;2022-08-20T03:33:09;2.58;;;2.30;;
13847;SDS011;6994;49.752;6.094;2022-08-20T03:35:36;3.03;;;1.90;;
13847;SDS011;6994;49.752;6.094;2022-08-20T03:38:07;2.30;;;2.08;;
13847;SDS011;6994;49.752;6.094;2022-08-20T03:40:34;2.05;;;1.90;;
13847;SDS011;6994;49.752;6.094;2022-08-20T03:43:01;4.75;;;2.15;;
13847;SDS011;6994;49.752;6.094;2022-08-20T03:45:28;2.83;;;1.95;;
13847;SDS011;6994;49.752;6.094;2022-08-20T03:47:55;2.30;;;2.10;;
13847;SDS011;6994;49.752;6.094;2022-08-20T03:50:25;2.80;;;1.83;;
13847;SDS011;6994;49.752;6.094;2022-08-20T03:52:51;1.90;;;1.80;;
13847;SDS011;6994;49.752;6.094;2022-08-20T03:55:18;2.92;;;2.45;;
13847;SDS011;6994;49.752;6.094;2022-08-20T03:57:47;2.25;;;2.05;;
13847;SDS011;6994;49.752;6.094;2022-08-20T04:00:14;2.17;;;1.98;;
13847;SDS011;6994;49.752;6.094;2022-08-20T04:02:41;2.20;;;2.10;;
13847;SDS011;6994;49.752;6.094;2022-08-20T04:05:09;3.15;;;2.00;;
13847;SDS011;6994;49.752;6.094;2022-08-20T04:07:37;3.60;;;2.22;;
13847;SDS011;6994;49.752;6.094;2022-08-20T04:10:05;3.55;;;1.80;;
13847;SDS011;6994;49.752;6.094;2022-08-20T04:12:31;3.08;;;2.40;;
13847;SDS011;6994;49.752;6.094;2022-08-20T04:14:59;4.50;;;2.65;;
13847;SDS011;6994;49.752;6.094;2022-08-20T04:17:26;2.75;;;2.55;;
13847;SDS011;6994;49.752;6.094;2022-08-20T04:19:53;4.43;;;3.37;;
13847;SDS011;6994;49.752;6.094;2022-08-20T04:22:20;3.28;;;2.87;;
13847;SDS011;6994;49.752;6.094;2022-08-20T04:24:47;2.62;;;2.42;;
13847;SDS011;6994;49.752;6.094;2022-08-20T04:27:15;5.72;;;3.03;;
13847;SDS011;6994;49.752;6.094;2022-08-20T04:29:42;3.67;;;3.35;;
13847;SDS011;6994;49.752;6.094;2022-08-20T04:32:09;5.25;;;2.62;;
13847;SDS011;6994;49.752;6.094;2022-08-20T04:34:36;6.20;;;2.83;;
13847;SDS011;6994;49.752;6.094;2022-08-20T04:37:04;4.22;;;3.10;;
13847;SDS011;6994;49.752;6.094;2022-08-20T04:39:32;3.05;;;2.47;;
13847;SDS011;6994;49.752;6.094;2022-08-20T04:41:59;3.60;;;2.03;;
13847;SDS011;6994;49.752;6.094;2022-08-20T04:44:27;6.00;;;2.33;;
13847;SDS011;6994;49.752;6.094;2022-08-20T04:46:54;3.67;;;2.30;;
13847;SDS011;6994;49.752;6.094;2022-08-20T04:49:21;2.20;;;2.10;;
13847;SDS011;6994;49.752;6.094;2022-08-20T04:51:48;3.17;;;1.58;;
13847;SDS011;6994;49.752;6.094;2022-08-20T04:54:15;3.15;;;1.87;;
13847;SDS011;6994;49.752;6.094;2022-08-20T04:56:43;3.37;;;2.40;;
13847;SDS011;6994;49.752;6.094;2022-08-20T04:59:10;2.47;;;1.87;;
13847;SDS011;6994;49.752;6.094;2022-08-20T05:01:37;2.97;;;2.28;;
13847;SDS011;6994;49.752;6.094;2022-08-20T05:04:04;3.25;;;1.92;;
13847;SDS011;6994;49.752;6.094;2022-08-20T05:06:31;1.90;;;1.80;;
13847;SDS011;6994;49.752;6.094;2022-08-20T05:08:59;2.53;;;1.90;;
13847;SDS011;6994;49.752;6.094;2022-08-20T05:11:27;4.22;;;2.00;;
13847;SDS011;6994;49.752;6.094;2022-08-20T05:13:54;3.47;;;2.53;;
13847;SDS011;6994;49.752;6.094;2022-08-20T05:16:21;5.50;;;2.17;;
13847;SDS011;6994;49.752;6.094;2022-08-20T05:18:48;2.60;;;1.87;;
13847;SDS011;6994;49.752;6.094;2022-08-20T05:21:15;3.42;;;1.83;;
13847;SDS011;6994;49.752;6.094;2022-08-20T05:23:43;8.13;;;3.30;;
13847;SDS011;6994;49.752;6.094;2022-08-20T05:26:10;2.95;;;2.70;;
13847;SDS011;6994;49.752;6.094;2022-08-20T05:28:38;5.37;;;2.95;;
13847;SDS011;6994;49.752;6.094;2022-08-20T05:31:05;2.70;;;2.42;;
13847;SDS011;6994;49.752;6.094;2022-08-20T05:33:32;1.90;;;1.80;;
13847;SDS011;6994;49.752;6.094;2022-08-20T05:35:59;7.18;;;2.85;;
13847;SDS011;6994;49.752;6.094;2022-08-20T05:38:27;3.12;;;2.58;;
13847;SDS011;6994;49.752;6.094;2022-08-20T05:40:54;3.53;;;2.17;;
13847;SDS011;6994;49.752;6.094;2022-08-20T05:43:21;8.32;;;2.72;;
13847;SDS011;6994;49.752;6.094;2022-08-20T05:45:48;5.37;;;2.72;;
13847;SDS011;6994;49.752;6.094;2022-08-20T05:48:19;4.18;;;2.92;;
13847;SDS011;6994;49.752;6.094;2022-08-20T05:50:46;7.18;;;2.70;;
13847;SDS011;6994;49.752;6.094;2022-08-20T05:53:12;4.97;;;2.80;;
13847;SDS011;6994;49.752;6.094;2022-08-20T05:55:40;3.85;;;2.62;;
13847;SDS011;6994;49.752;6.094;2022-08-20T05:58:08;4.28;;;2.75;;
13847;SDS011;6994;49.752;6.094;2022-08-20T06:00:34;5.07;;;2.80;;
13847;SDS011;6994;49.752;6.094;2022-08-20T06:03:01;5.18;;;3.45;;
13847;SDS011;6994;49.752;6.094;2022-08-20T06:05:48;3.67;;;2.40;;
13847;SDS011;6994;49.752;6.094;2022-08-20T06:08:16;3.08;;;2.10;;
13847;SDS011;6994;49.752;6.094;2022-08-20T06:10:44;4.93;;;2.03;;
13847;SDS011;6994;49.752;6.094;2022-08-20T06:13:12;5.28;;;2.60;;
13847;SDS011;6994;49.752;6.094;2022-08-20T06:15:39;5.97;;;3.10;;
13847;SDS011;6994;49.752;6.094;2022-08-20T06:18:07;4.40;;;2.60;;
13847;SDS011;6994;49.752;6.094;2022-08-20T06:20:34;6.70;;;3.37;;
13847;SDS011;6994;49.752;6.094;2022-08-20T06:23:00;6.53;;;3.03;;
13847;SDS011;6994;49.752;6.094;2022-08-20T06:25:28;5.70;;;3.20;;
13847;SDS011;6994;49.752;6.094;2022-08-20T06:27:55;4.68;;;2.78;;
13847;SDS011;6994;49.752;6.094;2022-08-20T06:30:22;8.20;;;3.58;;
13847;SDS011;6994;49.752;6.094;2022-08-20T06:32:49;4.20;;;2.83;;
13847;SDS011;6994;49.752;6.094;2022-08-20T06:35:16;5.82;;;2.67;;
13847;SDS011;6994;49.752;6.094;2022-08-20T06:37:44;5.53;;;3.83;;
13847;SDS011;6994;49.752;6.094;2022-08-20T06:40:17;7.18;;;3.50;;
13847;SDS011;6994;49.752;6.094;2022-08-20T06:42:42;6.97;;;2.87;;
13847;SDS011;6994;49.752;6.094;2022-08-20T06:45:10;8.38;;;3.05;;
13847;SDS011;6994;49.752;6.094;2022-08-20T06:47:40;4.62;;;3.03;;
13847;SDS011;6994;49.752;6.094;2022-08-20T06:50:11;7.53;;;3.53;;
13847;SDS011;6994;49.752;6.094;2022-08-20T06:52:34;5.53;;;3.28;;
13847;SDS011;6994;49.752;6.094;2022-08-20T06:55:01;5.78;;;3.70;;
13847;SDS011;6994;49.752;6.094;2022-08-20T06:57:28;5.70;;;3.20;;
13847;SDS011;6994;49.752;6.094;2022-08-20T06:59:56;6.28;;;2.90;;
13847;SDS011;6994;49.752;6.094;2022-08-20T07:02:24;8.68;;;3.25;;
13847;SDS011;6994;49.752;6.094;2022-08-20T07:04:51;7.18;;;2.95;;
13847;SDS011;6994;49.752;6.094;2022-08-20T07:07:18;7.32;;;3.42;;
13847;SDS011;6994;49.752;6.094;2022-08-20T07:09:45;9.25;;;2.75;;
13847;SDS011;6994;49.752;6.094;2022-08-20T07:12:13;7.30;;;3.60;;
13847;SDS011;6994;49.752;6.094;2022-08-20T07:14:40;5.18;;;2.50;;
13847;SDS011;6994;49.752;6.094;2022-08-20T07:17:11;11.68;;;4.00;;
13847;SDS011;6994;49.752;6.094;2022-08-20T07:19:35;4.15;;;2.33;;
13847;SDS011;6994;49.752;6.094;2022-08-20T07:22:02;4.37;;;2.30;;
13847;SDS011;6994;49.752;6.094;2022-08-20T07:24:29;7.45;;;2.70;;
13847;SDS011;6994;49.752;6.094;2022-08-20T07:26:57;5.57;;;2.20;;
13847;SDS011;6994;49.752;6.094;2022-08-20T07:29:24;6.95;;;2.15;;
13847;SDS011;6994;49.752;6.094;2022-08-20T07:31:51;4.03;;;2.08;;
13847;SDS011;6994;49.752;6.094;2022-08-20T07:34:36;6.55;;;2.28;;
13847;SDS011;6994;49.752;6.094;2022-08-20T07:37:04;5.25;;;2.20;;
13847;SDS011;6994;49.752;6.094;2022-08-20T07:39:32;6.07;;;2.35;;
13847;SDS011;6994;49.752;6.094;2022-08-20T07:42:00;5.10;;;2.42;;
13847;SDS011;6994;49.752;6.094;2022-08-20T07:44:30;4.60;;;2.58;;
13847;SDS011;6994;49.752;6.094;2022-08-20T07:46:58;7.00;;;2.95;;
13847;SDS011;6994;49.752;6.094;2022-08-20T07:49:26;6.25;;;2.65;;
13847;SDS011;6994;49.752;6.094;2022-08-20T07:51:54;4.05;;;2.05;;
13847;SDS011;6994;49.752;6.094;2022-08-20T07:54:22;4.65;;;2.40;;
13847;SDS011;6994;49.752;6.094;2022-08-20T07:56:50;5.12;;;2.30;;
13847;SDS011;6994;49.752;6.094;2022-08-20T07:59:17;7.75;;;2.20;;
13847;SDS011;6994;49.752;6.094;2022-08-20T08:01:44;3.53;;;2.15;;
13847;SDS011;6994;49.752;6.094;2022-08-20T08:04:11;8.00;;;2.50;;
13847;SDS011;6994;49.752;6.094;2022-08-20T08:06:39;5.47;;;2.10;;
13847;SDS011;6994;49.752;6.094;2022-08-20T08:09:07;4.53;;;2.53;;
13847;SDS011;6994;49.752;6.094;2022-08-20T08:11:34;5.87;;;2.42;;
13847;SDS011;6994;49.752;6.094;2022-08-20T08:14:00;4.78;;;2.97;;
13847;SDS011;6994;49.752;6.094;2022-08-20T08:16:27;7.22;;;2.50;;
13847;SDS011;6994;49.752;6.094;2022-08-20T08:18:55;4.80;;;2.25;;
13847;SDS011;6994;49.752;6.094;2022-08-20T08:21:22;3.33;;;2.37;;
13847;SDS011;6994;49.752;6.094;2022-08-20T08:23:49;5.43;;;2.55;;
13847;SDS011;6994;49.752;6.094;2022-08-20T08:26:16;3.83;;;2.67;;
13847;SDS011;6994;49.752;6.094;2022-08-20T08:28:43;6.68;;;2.83;;
13847;SDS011;6994;49.752;6.094;2022-08-20T08:31:11;4.70;;;3.05;;
13847;SDS011;6994;49.752;6.094;2022-08-20T08:33:39;6.00;;;3.08;;
13847;SDS011;6994;49.752;6.094;2022-08-20T08:36:07;5.03;;;2.87;;
13847;SDS011;6994;49.752;6.094;2022-08-20T08:38:34;6.18;;;2.97;;
13847;SDS011;6994;49.752;6.094;2022-08-20T08:41:10;4.97;;;2.80;;
13847;SDS011;6994;49.752;6.094;2022-08-20T08:43:36;4.50;;;2.72;;
13847;SDS011;6994;49.752;6.094;2022-08-20T08:46:05;4.07;;;2.75;;
13847;SDS011;6994;49.752;6.094;2022-08-20T08:48:32;7.20;;;3.60;;
13847;SDS011;6994;49.752;6.094;2022-08-20T08:51:01;8.15;;;2.85;;
13847;SDS011;6994;49.752;6.094;2022-08-20T08:53:29;5.80;;;3.53;;
13847;SDS011;6994;49.752;6.094;2022-08-20T08:55:55;7.95;;;4.15;;
13847;SDS011;6994;49.752;6.094;2022-08-20T08:58:22;4.78;;;2.55;;
13847;SDS011;6994;49.752;6.094;2022-08-20T09:00:49;5.18;;;2.50;;
13847;SDS011;6994;49.752;6.094;2022-08-20T09:03:19;4.70;;;2.53;;
13847;SDS011;6994;49.752;6.094;2022-08-20T09:08:23;5.70;;;3.17;;
13847;SDS011;6994;49.752;6.094;2022-08-20T09:10:47;6.93;;;2.60;;
13847;SDS011;6994;49.752;6.094;2022-08-20T09:13:14;6.07;;;3.17;;
13847;SDS011;6994;49.752;6.094;2022-08-20T09:15:42;5.87;;;2.87;;
13847;SDS011;6994;49.752;6.094;2022-08-20T09:18:09;3.62;;;2.37;;
13847;SDS011;6994;49.752;6.094;2022-08-20T09:20:36;4.20;;;2.37;;
13847;SDS011;6994;49.752;6.094;2022-08-20T09:23:04;6.00;;;3.37;;
13847;SDS011;6994;49.752;6.094;2022-08-20T09:25:32;6.62;;;2.90;;
13847;SDS011;6994;49.752;6.094;2022-08-20T09:27:59;8.02;;;3.12;;
13847;SDS011;6994;49.752;6.094;2022-08-20T09:30:27;3.72;;;2.67;;
13847;SDS011;6994;49.752;6.094;2022-08-20T09:32:57;5.00;;;2.40;;
13847;SDS011;6994;49.752;6.094;2022-08-20T09:35:22;6.97;;;2.60;;
13847;SDS011;6994;49.752;6.094;2022-08-20T09:37:50;6.32;;;3.05;;
13847;SDS011;6994;49.752;6.094;2022-08-20T09:40:17;8.02;;;3.05;;
13847;SDS011;6994;49.752;6.094;2022-08-20T09:42:44;4.25;;;2.72;;
13847;SDS011;6994;49.752;6.094;2022-08-20T09:45:11;5.12;;;2.75;;
13847;SDS011;6994;49.752;6.094;2022-08-20T09:47:39;8.13;;;3.65;;
13847;SDS011;6994;49.752;6.094;2022-08-20T09:50:06;6.87;;;2.85;;
13847;SDS011;6994;49.752;6.094;2022-08-20T09:52:38;6.32;;;2.87;;
13847;SDS011;6994;49.752;6.094;2022-08-20T09:55:03;6.75;;;2.75;;
13847;SDS011;6994;49.752;6.094;2022-08-20T09:57:28;6.30;;;2.67;;
13847;SDS011;6994;49.752;6.094;2022-08-20T09:59:57;6.72;;;2.78;;
13847;SDS011;6994;49.752;6.094;2022-08-20T10:02:23;5.93;;;2.87;;
13847;SDS011;6994;49.752;6.094;2022-08-20T10:04:50;4.70;;;2.30;;
13847;SDS011;6994;49.752;6.094;2022-08-20T10:07:17;6.97;;;2.90;;
13847;SDS011;6994;49.752;6.094;2022-08-20T10:09:44;4.90;;;2.67;;
13847;SDS011;6994;49.752;6.094;2022-08-20T10:12:11;6.47;;;3.50;;
13847;SDS011;6994;49.752;6.094;2022-08-20T10:14:39;5.93;;;2.85;;
13847;SDS011;6994;49.752;6.094;2022-08-20T10:17:06;5.47;;;2.78;;
13847;SDS011;6994;49.752;6.094;2022-08-20T10:19:33;8.00;;;3.03;;
13847;SDS011;6994;49.752;6.094;2022-08-20T10:22:00;4.53;;;3.08;;
13847;SDS011;6994;49.752;6.094;2022-08-20T10:24:28;4.87;;;2.65;;
13847;SDS011;6994;49.752;6.094;2022-08-20T10:26:57;5.20;;;2.72;;
13847;SDS011;6994;49.752;6.094;2022-08-20T10:29:24;6.45;;;2.55;;
13847;SDS011;6994;49.752;6.094;2022-08-20T10:31:52;6.05;;;2.40;;
13847;SDS011;6994;49.752;6.094;2022-08-20T10:34:19;6.43;;;2.33;;
13847;SDS011;6994;49.752;6.094;2022-08-20T10:36:46;7.90;;;2.20;;
13847;SDS011;6994;49.752;6.094;2022-08-20T10:39:14;3.87;;;2.30;;
13847;SDS011;6994;49.752;6.094;2022-08-20T10:41:41;4.50;;;2.08;;
13847;SDS011;6994;49.752;6.094;2022-08-20T10:44:08;7.37;;;2.28;;
13847;SDS011;6994;49.752;6.094;2022-08-20T10:46:35;3.62;;;2.25;;
13847;SDS011;6994;49.752;6.094;2022-08-20T10:49:02;5.40;;;2.05;;
13847;SDS011;6994;49.752;6.094;2022-08-20T10:51:30;5.53;;;1.80;;
13847;SDS011;6994;49.752;6.094;2022-08-20T10:53:57;5.85;;;1.92;;
13847;SDS011;6994;49.752;6.094;2022-08-20T10:56:25;3.85;;;1.85;;
13847;SDS011;6994;49.752;6.094;2022-08-20T10:58:53;6.22;;;2.20;;
13847;SDS011;6994;49.752;6.094;2022-08-20T11:01:20;9.10;;;2.47;;
13847;SDS011;6994;49.752;6.094;2022-08-20T11:03:47;2.85;;;1.73;;
13847;SDS011;6994;49.752;6.094;2022-08-20T11:06:14;9.45;;;1.80;;
13847;SDS011;6994;49.752;6.094;2022-08-20T11:08:42;7.50;;;2.35;;
13847;SDS011;6994;49.752;6.094;2022-08-20T11:11:09;5.80;;;2.03;;
13847;SDS011;6994;49.752;6.094;2022-08-20T11:13:36;6.65;;;1.75;;
13847;SDS011;6994;49.752;6.094;2022-08-20T11:16:03;6.12;;;1.92;;
13847;SDS011;6994;49.752;6.094;2022-08-20T11:18:30;4.35;;;2.00;;
13847;SDS011;6994;49.752;6.094;2022-08-20T11:20:58;5.50;;;1.83;;
13847;SDS011;6994;49.752;6.094;2022-08-20T11:23:25;3.42;;;2.20;;
13847;SDS011;6994;49.752;6.094;2022-08-20T11:25:52;4.80;;;2.03;;
13847;SDS011;6994;49.752;6.094;2022-08-20T11:28:19;5.70;;;2.03;;
13847;SDS011;6994;49.752;6.094;2022-08-20T11:30:46;8.52;;;2.33;;
13847;SDS011;6994;49.752;6.094;2022-08-20T11:33:14;4.28;;;1.90;;
13847;SDS011;6994;49.752;6.094;2022-08-20T11:35:42;5.95;;;2.10;;
13847;SDS011;6994;49.752;6.094;2022-08-20T11:38:09;4.53;;;2.25;;
13847;SDS011;6994;49.752;6.094;2022-08-20T11:40:36;3.30;;;1.87;;
13847;SDS011;6994;49.752;6.094;2022-08-20T11:43:03;3.50;;;1.73;;
13847;SDS011;6994;49.752;6.094;2022-08-20T11:45:30;4.40;;;1.83;;
13847;SDS011;6994;49.752;6.094;2022-08-20T11:47:58;3.03;;;1.45;;
13847;SDS011;6994;49.752;6.094;2022-08-20T11:50:25;3.72;;;1.45;;
13847;SDS011;6994;49.752;6.094;2022-08-20T11:52:53;6.95;;;2.17;;
13847;SDS011;6994;49.752;6.094;2022-08-20T11:55:20;6.95;;;1.90;;
13847;SDS011;6994;49.752;6.094;2022-08-20T11:57:47;3.00;;;1.20;;
13847;SDS011;6994;49.752;6.094;2022-08-20T12:00:16;4.20;;;1.75;;
13847;SDS011;6994;49.752;6.094;2022-08-20T12:02:42;6.72;;;1.55;;
13847;SDS011;6994;49.752;6.094;2022-08-20T12:05:09;4.68;;;1.62;;
13847;SDS011;6994;49.752;6.094;2022-08-20T12:07:36;4.10;;;1.67;;
13847;SDS011;6994;49.752;6.094;2022-08-20T12:10:04;4.68;;;1.62;;
13847;SDS011;6994;49.752;6.094;2022-08-20T12:12:30;3.70;;;1.60;;
13847;SDS011;6994;49.752;6.094;2022-08-20T12:14:58;5.10;;;1.80;;
13847;SDS011;6994;49.752;6.094;2022-08-20T12:17:26;3.55;;;1.52;;
13847;SDS011;6994;49.752;6.094;2022-08-20T12:19:52;5.32;;;2.10;;
13847;SDS011;6994;49.752;6.094;2022-08-20T12:22:19;5.20;;;2.08;;
13847;SDS011;6994;49.752;6.094;2022-08-20T12:24:47;4.37;;;1.65;;
13847;SDS011;6994;49.752;6.094;2022-08-20T12:27:21;3.08;;;1.55;;
13847;SDS011;6994;49.752;6.094;2022-08-20T12:29:44;6.18;;;1.60;;
13847;SDS011;6994;49.752;6.094;2022-08-20T12:32:11;4.45;;;1.70;;
13847;SDS011;6994;49.752;6.094;2022-08-20T12:34:38;3.87;;;2.00;;
13847;SDS011;6994;49.752;6.094;2022-08-20T12:37:09;6.78;;;2.20;;
13847;SDS011;6994;49.752;6.094;2022-08-20T12:39:37;4.25;;;2.10;;
13847;SDS011;6994;49.752;6.094;2022-08-20T12:42:04;5.75;;;2.37;;
13847;SDS011;6994;49.752;6.094;2022-08-20T12:44:31;3.65;;;2.15;;
13847;SDS011;6994;49.752;6.094;2022-08-20T12:47:16;4.03;;;2.08;;
13847;SDS011;6994;49.752;6.094;2022-08-20T12:49:45;3.92;;;1.80;;
13847;SDS011;6994;49.752;6.094;2022-08-20T12:52:12;7.20;;;2.20;;
13847;SDS011;6994;49.752;6.094;2022-08-20T12:54:39;5.30;;;1.87;;
13847;SDS011;6994;49.752;6.094;2022-08-20T12:57:11;4.62;;;2.40;;
13847;SDS011;6994;49.752;6.094;2022-08-20T12:59:33;3.47;;;1.87;;
13847;SDS011;6994;49.752;6.094;2022-08-20T13:02:01;7.80;;;2.00;;
13847;SDS011;6994;49.752;6.094;2022-08-20T13:04:28;9.95;;;2.67;;
13847;SDS011;6994;49.752;6.094;2022-08-20T13:07:02;7.50;;;2.10;;
13847;SDS011;6994;49.752;6.094;2022-08-20T13:09:28;7.62;;;2.30;;
13847;SDS011;6994;49.752;6.094;2022-08-20T13:11:55;3.85;;;1.90;;
13847;SDS011;6994;49.752;6.094;2022-08-20T13:14:23;6.22;;;2.28;;
13847;SDS011;6994;49.752;6.094;2022-08-20T13:16:53;2.25;;;2.03;;
13847;SDS011;6994;49.752;6.094;2022-08-20T13:19:23;4.70;;;2.00;;
13847;SDS011;6994;49.752;6.094;2022-08-20T13:21:50;3.17;;;2.17;;
13847;SDS011;6994;49.752;6.094;2022-08-20T13:24:17;4.82;;;2.20;;
13847;SDS011;6994;49.752;6.094;2022-08-20T13:26:44;4.18;;;2.45;;
13847;SDS011;6994;49.752;6.094;2022-08-20T13:29:12;3.22;;;1.98;;
13847;SDS011;6994;49.752;6.094;2022-08-20T13:31:39;5.93;;;2.75;;
13847;SDS011;6994;49.752;6.094;2022-08-20T13:34:06;4.65;;;2.72;;
13847;SDS011;6994;49.752;6.094;2022-08-20T13:36:33;5.28;;;2.67;;
13847;SDS011;6994;49.752;6.094;2022-08-20T13:39:01;3.45;;;2.70;;
13847;SDS011;6994;49.752;6.094;2022-08-20T13:41:27;5.57;;;2.60;;
13847;SDS011;6994;49.752;6.094;2022-08-20T13:43:54;6.87;;;3.42;;
13847;SDS011;6994;49.752;6.094;2022-08-20T13:46:22;7.57;;;3.10;;
13847;SDS011;6994;49.752;6.094;2022-08-20T13:48:50;3.58;;;2.55;;
13847;SDS011;6994;49.752;6.094;2022-08-20T13:51:18;5.20;;;2.80;;
13847;SDS011;6994;49.752;6.094;2022-08-20T13:53:45;3.05;;;2.75;;
13847;SDS011;6994;49.752;6.094;2022-08-20T13:56:12;5.03;;;3.57;;
13847;SDS011;6994;49.752;6.094;2022-08-20T13:58:39;6.50;;;3.65;;
13847;SDS011;6994;49.752;6.094;2022-08-20T14:01:06;6.70;;;3.05;;
13847;SDS011;6994;49.752;6.094;2022-08-20T14:03:34;4.60;;;3.25;;
13847;SDS011;6994;49.752;6.094;2022-08-20T14:06:01;4.30;;;2.58;;
13847;SDS011;6994;49.752;6.094;2022-08-20T14:08:28;4.37;;;2.53;;
13847;SDS011;6994;49.752;6.094;2022-08-20T14:10:55;8.20;;;3.00;;
13847;SDS011;6994;49.752;6.094;2022-08-20T14:13:23;7.75;;;3.05;;
13847;SDS011;6994;49.752;6.094;2022-08-20T14:15:50;6.47;;;2.65;;
13847;SDS011;6994;49.752;6.094;2022-08-20T14:18:17;4.78;;;2.40;;
13847;SDS011;6994;49.752;6.094;2022-08-20T14:20:44;3.80;;;2.00;;
13847;SDS011;6994;49.752;6.094;2022-08-20T14:23:11;5.47;;;2.65;;
13847;SDS011;6994;49.752;6.094;2022-08-20T14:25:39;4.22;;;2.33;;
13847;SDS011;6994;49.752;6.094;2022-08-20T14:28:11;4.55;;;2.85;;
13847;SDS011;6994;49.752;6.094;2022-08-20T14:30:36;4.93;;;2.65;;
13847;SDS011;6994;49.752;6.094;2022-08-20T14:33:03;5.35;;;2.25;;
13847;SDS011;6994;49.752;6.094;2022-08-20T14:35:30;5.93;;;2.65;;
13847;SDS011;6994;49.752;6.094;2022-08-20T14:37:58;6.93;;;2.47;;
13847;SDS011;6994;49.752;6.094;2022-08-20T14:40:25;8.82;;;3.25;;
13847;SDS011;6994;49.752;6.094;2022-08-20T14:42:53;3.72;;;2.15;;
13847;SDS011;6994;49.752;6.094;2022-08-20T14:45:19;4.78;;;2.62;;
13847;SDS011;6994;49.752;6.094;2022-08-20T14:47:49;3.22;;;2.00;;
13847;SDS011;6994;49.752;6.094;2022-08-20T14:50:17;7.12;;;2.08;;
13847;SDS011;6994;49.752;6.094;2022-08-20T14:52:43;6.47;;;2.65;;
13847;SDS011;6994;49.752;6.094;2022-08-20T14:55:12;7.62;;;2.05;;
13847;SDS011;6994;49.752;6.094;2022-08-20T14:57:38;7.10;;;3.08;;
13847;SDS011;6994;49.752;6.094;2022-08-20T15:00:06;6.25;;;2.33;;
13847;SDS011;6994;49.752;6.094;2022-08-20T15:02:32;5.00;;;2.50;;
13847;SDS011;6994;49.752;6.094;2022-08-20T15:04:59;3.22;;;1.83;;
13847;SDS011;6994;49.752;6.094;2022-08-20T15:07:28;6.87;;;2.55;;